Airfield :
LOGIN :

Register | Disclaimer

   EN    FR    IT 

 










Legend :    VFR   Marginal VFR   IFR   Intensive IFR   Very Intensive IFR
Visi :
Ceiling :
>= 8 km
>= 3000ft
5 to 8 km
1000 to 3000 ft
1500m to 5 km
500 to 1000 ft
800 to 1500m
200 to 500 ft
< 800m
< 200 ft
Symbols :   Thunderstorms  Fog  Heavy snow  Heavy precipitations  Wind > 20 kt
SIGMETs :     Misc.  Thunderstorms  Icing  Turbulence  Mountain Waves  Volcanic Ashes






- Airport Elevation : 1079 ft


ETIK - Illesheim Air Base

CURRENT METAR :
  • 030156Z AUTO 00000KT 9999 CLR M03/M04 A3045 RMK AO2 SLP325 T10341044 $

EXPIRED METARs :
  • 030056Z AUTO 00000KT 9999 CLR M03/M04 A3045 RMK AO2 SLP325 T10311044 $

TAF AMD TAF ETIK
Valid from the 02 at 21:00 until the 03 at 21:00 UTC


022122Z 0221/0321 VRB06KT 9999 SKC QNH3040INS
BECMG 0310/0311 25009KT 9999 SCT070 QNH3030INS TX12/0315Z TN00/0305Z LAST NO AMDS AFT 0221 NEXT 0307



MET'MAP, your aeronautical weather chart ! - Copyright ORBIFLY December 2007 - Disclaimer

ORBIFLY MET'MAP TEAM :

Programming & Development : Alexandra Zaïnal
Concept & original design : Baudouin d'Aumeries
Assistance for programming : Marc-Olivier Méhu
Technical & hardware support : Manuel Goepfert

Contact : metmap@orbifly.com




SOURCES & CREDITS :

   NOAA